Time;durP1;ratioP1;P1;durP2;ratioP2;P2;SDS_P1;SDS_P2;PMS_P1;PMS_P2;Temp;Humidity;BMP_temperature;BMP_pressure;BME280_temperature;BME280_humidity;BME280_pressure;Samples;Min_cycle;Max_cycle;Signal;HPM_P1;HPM_P2
2023/06/15 00:00:08;;;;;;;6.97;3.70;;;18.20;99.90;;;;;;5052166;28;20049;-69
2023/06/15 00:02:34;;;;;;;7.18;3.40;;;18.10;99.90;;;;;;4985939;28;20046;-69
2023/06/15 00:05:00;;;;;;;6.05;3.60;;;18.10;99.90;;;;;;4983395;28;20116;-69
2023/06/15 00:07:25;;;;;;;5.80;3.58;;;18.10;99.90;;;;;;5049572;28;20050;-69
2023/06/15 00:09:51;;;;;;;6.35;3.75;;;18.10;99.90;;;;;;4993981;28;20039;-69
2023/06/15 00:12:17;;;;;;;4.20;3.50;;;18.00;99.90;;;;;;4985592;28;20359;-70
2023/06/15 00:14:42;;;;;;;4.78;3.38;;;18.00;99.90;;;;;;5053272;28;20050;-69
2023/06/15 00:17:08;;;;;;;5.95;3.65;;;17.90;99.90;;;;;;5062485;28;20390;-70
2023/06/15 00:19:33;;;;;;;5.43;3.50;;;17.90;99.90;;;;;;4993142;28;20180;-70
2023/06/15 00:21:59;;;;;;;7.32;4.20;;;17.90;99.90;;;;;;4987794;28;20042;-69
2023/06/15 00:24:27;;;;;;;7.93;3.60;;;17.80;99.90;;;;;;4981896;28;20158;-69
2023/06/15 00:26:53;;;;;;;7.35;3.75;;;17.80;99.90;;;;;;4991198;28;20117;-69
2023/06/15 00:29:18;;;;;;;4.90;3.67;;;17.80;99.90;;;;;;4992300;28;20401;-69
2023/06/15 00:31:44;;;;;;;7.45;3.78;;;17.70;99.90;;;;;;4992318;28;20046;-70
2023/06/15 00:34:10;;;;;;;5.25;3.40;;;17.70;99.90;;;;;;4985872;28;20054;-70
2023/06/15 00:36:35;;;;;;;5.55;3.70;;;17.70;99.90;;;;;;4985806;28;20050;-70
2023/06/15 00:39:01;;;;;;;5.50;3.63;;;17.70;99.90;;;;;;4979434;28;20472;-70
2023/06/15 00:41:27;;;;;;;5.82;4.07;;;17.60;99.90;;;;;;4986053;28;20058;-69
2023/06/15 00:43:53;;;;;;;6.18;4.05;;;17.60;99.90;;;;;;5056186;28;20031;-70
2023/06/15 00:46:18;;;;;;;4.65;3.50;;;17.70;99.90;;;;;;4985882;28;20133;-70
2023/06/15 00:48:44;;;;;;;8.18;3.60;;;17.60;99.90;;;;;;4985651;28;20121;-70
2023/06/15 00:51:10;;;;;;;7.05;3.92;;;;;;;;;;4986383;28;20125;-70
2023/06/15 00:53:37;;;;;;;7.30;3.40;;;17.60;99.90;;;;;;4983900;28;20045;-70
2023/06/15 00:56:04;;;;;;;6.47;3.53;;;17.50;99.90;;;;;;5051611;28;20062;-70
2023/06/15 00:58:31;;;;;;;4.47;3.40;;;17.50;99.90;;;;;;4982397;28;20058;-70
2023/06/15 01:00:56;;;;;;;5.80;3.50;;;17.50;99.90;;;;;;4982995;28;20054;-70
2023/06/15 01:03:22;;;;;;;4.55;3.40;;;17.40;99.90;;;;;;4986911;28;20086;-70
2023/06/15 01:05:52;;;;;;;6.07;3.88;;;17.40;99.90;;;;;;4990313;28;20034;-71
2023/06/15 01:08:20;;;;;;;5.22;3.50;;;17.40;99.90;;;;;;4982943;28;20729;-70
2023/06/15 01:10:47;;;;;;;7.03;3.88;;;17.40;99.90;;;;;;5056177;28;20046;-70
2023/06/15 01:13:13;;;;;;;7.47;3.60;;;17.40;99.90;;;;;;4985782;28;20050;-70
2023/06/15 01:15:43;;;;;;;5.75;3.92;;;17.40;99.90;;;;;;5048498;28;20050;-70
2023/06/15 01:18:08;;;;;;;5.25;4.03;;;17.40;99.90;;;;;;5050404;28;20514;-70
2023/06/15 01:20:42;;;;;;;4.72;3.92;;;17.40;99.90;;;;;;4988643;28;20074;-70
2023/06/15 01:23:18;;;;;;;5.03;4.07;;;17.40;99.90;;;;;;4986377;28;20063;-69
2023/06/15 01:25:44;;;;;;;6.07;4.20;;;17.40;99.90;;;;;;4988363;28;20107;-69
2023/06/15 01:28:20;;;;;;;6.47;4.20;;;17.40;99.90;;;;;;4984868;28;20050;-70
2023/06/15 01:30:50;;;;;;;7.80;3.85;;;17.40;99.90;;;;;;4990799;28;20042;-70
2023/06/15 01:33:16;;;;;;;5.65;4.00;;;17.30;99.90;;;;;;4985504;28;20389;-69
2023/06/15 01:35:42;;;;;;;5.95;4.10;;;17.30;99.90;;;;;;4984306;28;20457;-69
2023/06/15 01:38:09;;;;;;;5.25;3.88;;;17.30;99.90;;;;;;4985384;28;20081;-69
2023/06/15 01:40:38;;;;;;;5.47;4.20;;;17.40;99.90;;;;;;4991654;28;20069;-69
2023/06/15 01:43:09;;;;;;;9.40;4.43;;;17.30;99.90;;;;;;4986471;28;20117;-69
2023/06/15 01:45:36;;;;;;;6.35;4.35;;;17.40;99.90;;;;;;4985403;28;20843;-69
2023/06/15 01:48:02;;;;;;;6.30;4.20;;;17.30;99.90;;;;;;5054488;28;20038;-69
2023/06/15 01:50:30;;;;;;;8.57;4.60;;;17.30;99.90;;;;;;4980881;28;20046;-68
2023/06/15 01:52:56;;;;;;;5.13;4.47;;;17.30;99.90;;;;;;4987551;28;20055;-69
2023/06/15 01:55:22;;;;;;;4.72;3.97;;;17.20;99.90;;;;;;5053186;28;20042;-69
2023/06/15 01:57:47;;;;;;;6.57;4.18;;;17.20;99.90;;;;;;4986046;28;20038;-69
2023/06/15 02:00:13;;;;;;;6.80;4.18;;;17.30;99.90;;;;;;4979556;28;20099;-69
2023/06/15 02:02:39;;;;;;;5.90;4.57;;;17.30;99.90;;;;;;4986536;28;20046;-69
2023/06/15 02:05:08;;;;;;;7.18;4.63;;;17.20;99.90;;;;;;4983179;28;20061;-69
2023/06/15 02:07:33;;;;;;;5.85;4.47;;;17.20;99.90;;;;;;4979040;28;20173;-69
2023/06/15 02:09:59;;;;;;;8.63;4.78;;;17.20;99.90;;;;;;4986187;28;20504;-69
2023/06/15 02:12:25;;;;;;;7.40;4.20;;;17.20;99.90;;;;;;4991745;28;20405;-69
2023/06/15 02:14:54;;;;;;;6.47;4.50;;;17.10;99.90;;;;;;4984538;28;20508;-70
2023/06/15 02:17:19;;;;;;;8.43;4.40;;;17.20;99.90;;;;;;4988480;28;20063;-69
2023/06/15 02:19:46;;;;;;;6.53;4.28;;;17.10;99.90;;;;;;4979603;28;20034;-70
2023/06/15 02:22:12;;;;;;;6.10;4.60;;;17.10;99.90;;;;;;4988258;28;20057;-70
2023/06/15 02:24:38;;;;;;;7.20;4.78;;;;;;;;;;5044301;28;20054;-69
2023/06/15 02:27:04;;;;;;;7.57;4.82;;;16.90;99.90;;;;;;4981570;28;20085;-69
2023/06/15 02:29:30;;;;;;;5.78;4.57;;;16.80;99.90;;;;;;5054479;28;20133;-69
2023/06/15 02:31:55;;;;;;;9.65;5.30;;;16.90;99.90;;;;;;4988431;28;20610;-69
2023/06/15 02:34:21;;;;;;;5.18;4.25;;;16.90;99.90;;;;;;4985018;28;20042;-69
2023/06/15 02:36:48;;;;;;;7.95;4.70;;;16.80;99.90;;;;;;5049743;28;20126;-69
2023/06/15 02:39:15;;;;;;;6.22;4.30;;;16.80;99.90;;;;;;4986812;28;20463;-69
2023/06/15 02:41:40;;;;;;;7.88;5.00;;;16.80;99.90;;;;;;4982279;28;20035;-69
2023/06/15 02:44:07;;;;;;;5.13;4.13;;;16.80;99.90;;;;;;4987830;28;20358;-69
2023/06/15 02:46:33;;;;;;;5.95;4.80;;;16.80;99.90;;;;;;5053941;28;20049;-70
2023/06/15 02:48:58;;;;;;;6.15;4.65;;;16.80;99.90;;;;;;4992011;28;20042;-69
2023/06/15 02:51:24;;;;;;;5.82;4.97;;;16.70;99.90;;;;;;4979629;28;20050;-69
2023/06/15 02:53:50;;;;;;;8.43;5.18;;;16.70;99.90;;;;;;4982136;28;20039;-69
2023/06/15 02:56:19;;;;;;;8.68;5.10;;;16.70;99.90;;;;;;4982478;28;20183;-69
2023/06/15 02:58:47;;;;;;;6.95;4.85;;;16.70;99.90;;;;;;5050615;28;20477;-69
2023/06/15 03:01:15;;;;;;;7.35;4.90;;;16.60;99.90;;;;;;4982543;28;20058;-69
2023/06/15 03:03:42;;;;;;;6.78;5.32;;;16.50;99.90;;;;;;5052432;28;20046;-70
2023/06/15 03:06:08;;;;;;;7.50;4.88;;;16.50;99.90;;;;;;4986736;28;20099;-69
2023/06/15 03:08:35;;;;;;;5.63;4.43;;;16.50;99.90;;;;;;4986819;28;20116;-69
2023/06/15 03:11:01;;;;;;;8.05;5.05;;;16.50;99.90;;;;;;4986716;28;20047;-69
2023/06/15 03:13:28;;;;;;;6.57;5.05;;;16.50;99.90;;;;;;4992030;28;20065;-69
2023/06/15 03:15:54;;;;;;;6.88;5.10;;;16.50;99.90;;;;;;4986309;28;20132;-69
2023/06/15 03:18:20;;;;;;;6.72;5.13;;;16.60;99.90;;;;;;4990086;28;20121;-69
2023/06/15 03:20:52;;;;;;;7.47;5.15;;;16.50;99.90;;;;;;4986686;28;20053;-69
2023/06/15 03:23:19;;;;;;;7.17;4.50;;;16.50;99.90;;;;;;4988149;28;20065;-70
2023/06/15 03:25:45;;;;;;;13.60;5.30;;;16.50;99.90;;;;;;4990280;28;20554;-69
2023/06/15 03:28:11;;;;;;;7.97;4.30;;;16.50;99.90;;;;;;4988731;28;20043;-69
2023/06/15 03:30:40;;;;;;;5.32;4.50;;;16.50;99.90;;;;;;4986903;28;20042;-69
2023/06/15 03:33:07;;;;;;;6.05;4.60;;;16.50;99.90;;;;;;4992932;28;20065;-70
2023/06/15 03:35:33;;;;;;;7.18;4.63;;;16.50;99.90;;;;;;4986272;28;20494;-70
2023/06/15 03:37:59;;;;;;;7.20;5.13;;;16.40;99.90;;;;;;4983599;28;20414;-70
2023/06/15 03:40:25;;;;;;;5.90;5.07;;;16.50;99.90;;;;;;4990369;28;20398;-69
2023/06/15 03:42:50;;;;;;;7.22;4.47;;;16.50;99.90;;;;;;4989095;28;20044;-69
2023/06/15 03:45:17;;;;;;;7.10;4.80;;;16.50;99.90;;;;;;4980777;28;20043;-70
2023/06/15 03:47:45;;;;;;;6.53;4.97;;;16.50;99.90;;;;;;4987515;28;20043;-70
2023/06/15 03:50:11;;;;;;;6.47;4.88;;;16.50;99.90;;;;;;4983504;28;20047;-69
2023/06/15 03:52:37;;;;;;;7.90;4.75;;;16.50;99.90;;;;;;4987812;28;20115;-69
2023/06/15 03:55:03;;;;;;;6.72;4.95;;;16.50;99.90;;;;;;5088582;28;20047;-69
2023/06/15 03:57:29;;;;;;;5.32;4.57;;;16.40;99.90;;;;;;4991392;28;20498;-69
2023/06/15 03:59:55;;;;;;;5.43;4.20;;;16.40;99.90;;;;;;5055550;28;20053;-69
2023/06/15 04:02:20;;;;;;;6.38;4.65;;;16.40;99.90;;;;;;4980962;28;20042;-69
2023/06/15 04:04:46;;;;;;;8.48;5.10;;;16.50;99.90;;;;;;4985058;28;20045;-69
2023/06/15 04:07:12;;;;;;;5.88;4.60;;;16.50;99.90;;;;;;4984266;28;20046;-69
2023/06/15 04:09:38;;;;;;;6.45;4.82;;;16.50;99.90;;;;;;4984868;28;20061;-69
2023/06/15 04:12:04;;;;;;;6.13;4.30;;;16.50;99.90;;;;;;4992217;28;20383;-69
2023/06/15 04:14:30;;;;;;;8.70;4.82;;;16.50;99.90;;;;;;4985880;28;21581;-69
2023/06/15 04:16:56;;;;;;;6.53;4.78;;;16.60;99.90;;;;;;4980783;28;20129;-69
2023/06/15 04:19:22;;;;;;;5.85;4.40;;;16.60;99.90;;;;;;5055134;28;20125;-69
2023/06/15 04:21:48;;;;;;;8.60;4.97;;;16.60;99.90;;;;;;4986807;28;20425;-70
2023/06/15 04:24:14;;;;;;;6.15;4.70;;;16.70;99.90;;;;;;5084931;28;20058;-69
2023/06/15 04:26:42;;;;;;;8.38;5.13;;;16.70;99.90;;;;;;4989177;28;20170;-69
2023/06/15 04:29:08;;;;;;;8.32;5.20;;;16.70;99.90;;;;;;4989348;28;20082;-69
2023/06/15 04:31:33;;;;;;;8.38;4.50;;;16.70;99.90;;;;;;5058200;28;20038;-69
2023/06/15 04:34:00;;;;;;;6.72;4.40;;;16.70;99.90;;;;;;4986129;28;20047;-69
2023/06/15 04:36:31;;;;;;;6.97;4.72;;;16.80;99.90;;;;;;4983013;28;20054;-69
2023/06/15 04:38:57;;;;;;;10.18;4.95;;;16.80;99.90;;;;;;4988100;28;20096;-69
2023/06/15 04:41:24;;;;;;;10.52;5.63;;;16.90;99.90;;;;;;4984935;28;20058;-69
2023/06/15 04:43:50;;;;;;;12.05;4.85;;;16.80;99.90;;;;;;4986458;28;20050;-69
2023/06/15 04:46:17;;;;;;;8.52;4.65;;;16.90;99.90;;;;;;4993259;28;20046;-69
2023/06/15 04:48:44;;;;;;;9.25;5.45;;;17.00;99.90;;;;;;4995245;28;20576;-69
2023/06/15 04:51:11;;;;;;;10.48;5.30;;;17.00;99.90;;;;;;4986914;28;20054;-69
2023/06/15 04:53:37;;;;;;;7.28;4.78;;;17.00;99.90;;;;;;5051069;28;20056;-69
2023/06/15 04:56:03;;;;;;;13.00;5.28;;;17.00;99.90;;;;;;4985211;28;20038;-69
2023/06/15 04:58:28;;;;;;;7.00;5.38;;;17.10;99.90;;;;;;4981689;28;20046;-69
2023/06/15 05:00:54;;;;;;;7.47;4.97;;;17.20;99.90;;;;;;4989085;28;20133;-69
2023/06/15 05:03:20;;;;;;;9.55;5.30;;;;;;;;;;4986198;28;20374;-69
2023/06/15 05:05:45;;;;;;;6.97;4.90;;;17.30;99.90;;;;;;4984001;28;20035;-69
2023/06/15 05:08:13;;;;;;;26.35;7.03;;;17.30;99.90;;;;;;5049150;28;20394;-69
2023/06/15 05:10:39;;;;;;;9.75;5.10;;;17.30;99.90;;;;;;4985130;28;20072;-69
2023/06/15 05:13:05;;;;;;;12.60;5.72;;;17.30;99.90;;;;;;4985654;28;20042;-69
2023/06/15 05:15:30;;;;;;;9.38;4.80;;;17.30;99.90;;;;;;4987117;28;20038;-69
2023/06/15 05:17:56;;;;;;;11.50;5.10;;;17.40;99.90;;;;;;4982697;28;20030;-69
2023/06/15 05:20:22;;;;;;;14.63;7.28;;;17.50;99.90;;;;;;4986533;28;20065;-69
2023/06/15 05:22:47;;;;;;;11.00;6.53;;;17.50;99.90;;;;;;5053336;28;20046;-69
2023/06/15 05:25:13;;;;;;;8.75;5.70;;;17.50;99.90;;;;;;5082182;28;20042;-69
2023/06/15 05:27:38;;;;;;;9.30;5.32;;;17.50;99.90;;;;;;4980211;28;20496;-69
2023/06/15 05:30:08;;;;;;;6.90;5.03;;;17.50;99.90;;;;;;4983234;28;20046;-69
2023/06/15 05:32:37;;;;;;;9.25;4.60;;;17.50;99.90;;;;;;5048154;28;20039;-69
2023/06/15 05:35:07;;;;;;;12.35;5.10;;;17.60;99.90;;;;;;5064895;28;20359;-69
2023/06/15 05:37:36;;;;;;;10.45;5.00;;;17.70;99.90;;;;;;4991540;28;20051;-69
2023/06/15 05:40:03;;;;;;;9.50;5.10;;;17.70;99.90;;;;;;5048833;28;20050;-69
2023/06/15 05:42:29;;;;;;;8.48;4.75;;;17.70;99.90;;;;;;4981123;28;20115;-69
2023/06/15 05:44:55;;;;;;;7.05;4.32;;;17.70;99.90;;;;;;4988351;28;20071;-69
2023/06/15 05:47:21;;;;;;;11.80;4.97;;;17.80;99.90;;;;;;5049742;28;20508;-69
2023/06/15 05:49:47;;;;;;;13.35;5.82;;;17.80;99.90;;;;;;4984881;28;20038;-69
2023/06/15 05:52:14;;;;;;;10.57;5.05;;;17.90;99.90;;;;;;5017041;28;20042;-69
2023/06/15 05:54:42;;;;;;;10.30;5.03;;;17.90;99.90;;;;;;5050598;28;20061;-69
2023/06/15 05:57:09;;;;;;;7.53;4.93;;;18.00;99.90;;;;;;4984938;28;20038;-69
2023/06/15 05:59:36;;;;;;;31.02;6.50;;;18.00;99.90;;;;;;4975280;28;20042;-69
2023/06/15 06:02:02;;;;;;;9.52;5.18;;;18.10;99.90;;;;;;5048406;28;20490;-69
2023/06/15 06:04:27;;;;;;;7.00;4.80;;;18.10;99.90;;;;;;5052406;28;20093;-68
2023/06/15 06:06:53;;;;;;;6.07;4.38;;;18.20;99.90;;;;;;5065838;28;20058;-69
2023/06/15 06:09:18;;;;;;;5.03;4.18;;;18.30;99.90;;;;;;4984092;28;20042;-69
2023/06/15 06:11:47;;;;;;;16.23;5.45;;;18.30;99.90;;;;;;4991538;28;20133;-69
2023/06/15 06:14:13;;;;;;;6.97;4.28;;;18.30;99.90;;;;;;4985693;28;20393;-69
2023/06/15 06:16:39;;;;;;;13.30;4.95;;;18.30;99.90;;;;;;4981197;28;20046;-69
2023/06/15 06:19:05;;;;;;;14.77;5.15;;;18.30;99.90;;;;;;4985998;28;20038;-69
2023/06/15 06:21:32;;;;;;;8.75;4.78;;;18.50;99.90;;;;;;5054098;28;20440;-70
2023/06/15 06:23:58;;;;;;;10.85;4.32;;;18.40;99.90;;;;;;5000124;28;20405;-69
2023/06/15 06:26:24;;;;;;;9.25;4.65;;;18.60;99.90;;;;;;4987611;28;20071;-69
2023/06/15 06:28:49;;;;;;;5.78;4.28;;;18.60;99.90;;;;;;5047968;28;20451;-69
2023/06/15 06:31:15;;;;;;;5.10;4.25;;;18.60;99.90;;;;;;5049216;28;20042;-69
2023/06/15 06:33:41;;;;;;;6.43;4.50;;;18.60;99.90;;;;;;4982330;28;20065;-69
2023/06/15 06:36:09;;;;;;;7.78;5.10;;;18.80;99.90;;;;;;4986081;28;20088;-69
2023/06/15 06:38:35;;;;;;;5.72;4.18;;;18.90;99.90;;;;;;4983197;28;20053;-69
2023/06/15 06:41:01;;;;;;;8.45;4.75;;;18.90;99.90;;;;;;4988455;28;20069;-69
2023/06/15 06:43:27;;;;;;;5.95;4.60;;;18.90;99.90;;;;;;4988090;28;20073;-69
2023/06/15 06:45:52;;;;;;;7.15;4.65;;;18.90;99.90;;;;;;4990791;28;20389;-69
2023/06/15 06:48:18;;;;;;;8.07;4.95;;;19.00;99.90;;;;;;5054521;28;20049;-70
2023/06/15 06:50:44;;;;;;;8.05;3.90;;;19.10;99.90;;;;;;4989269;28;20054;-70
2023/06/15 06:53:11;;;;;;;15.05;5.65;;;19.10;99.90;;;;;;4987962;28;20046;-70
2023/06/15 06:55:37;;;;;;;9.93;4.72;;;19.20;99.90;;;;;;5057681;28;20061;-71
2023/06/15 06:58:03;;;;;;;8.40;4.35;;;19.30;99.90;;;;;;4989886;28;20046;-70
2023/06/15 07:00:29;;;;;;;12.55;5.32;;;19.40;99.90;;;;;;4992539;28;20121;-71
2023/06/15 07:02:55;;;;;;;7.63;5.00;;;19.40;99.90;;;;;;4988787;28;20121;-71
2023/06/15 07:05:21;;;;;;;10.73;4.88;;;19.40;99.90;;;;;;4985694;28;20175;-71
2023/06/15 07:07:47;;;;;;;10.27;4.57;;;19.50;99.90;;;;;;4988017;28;20042;-71
2023/06/15 07:10:13;;;;;;;10.82;4.32;;;19.60;99.90;;;;;;5052373;28;20046;-70
2023/06/15 07:12:39;;;;;;;12.15;4.47;;;19.60;99.90;;;;;;5051069;28;20134;-70
2023/06/15 07:15:06;;;;;;;8.30;4.75;;;19.60;99.90;;;;;;5052696;28;20226;-70
2023/06/15 07:17:32;;;;;;;7.07;4.38;;;19.70;99.90;;;;;;4996740;28;20375;-71
2023/06/15 07:19:57;;;;;;;7.30;4.20;;;19.70;99.90;;;;;;4988579;28;20050;-71
2023/06/15 07:22:23;;;;;;;9.35;5.03;;;19.80;99.90;;;;;;4991641;28;20362;-71
2023/06/15 07:24:50;;;;;;;12.18;4.28;;;19.80;99.90;;;;;;5078548;28;20458;-71
2023/06/15 07:27:16;;;;;;;5.88;3.80;;;19.90;99.90;;;;;;4985172;28;20073;-71
2023/06/15 07:29:41;;;;;;;4.88;3.97;;;19.90;99.90;;;;;;4997723;28;20047;-71
2023/06/15 07:32:07;;;;;;;8.80;3.75;;;20.00;99.90;;;;;;5002613;28;20131;-70
2023/06/15 07:34:33;;;;;;;5.30;3.70;;;20.00;99.90;;;;;;5005147;28;20092;-71
2023/06/15 07:36:59;;;;;;;9.43;4.10;;;20.10;99.90;;;;;;5086511;28;20582;-71
2023/06/15 07:39:24;;;;;;;5.63;3.83;;;20.20;99.90;;;;;;5006654;28;20500;-70
2023/06/15 07:41:50;;;;;;;7.38;4.57;;;20.20;99.90;;;;;;4991895;28;20099;-70
2023/06/15 07:44:16;;;;;;;42.70;7.22;;;20.30;99.90;;;;;;5088038;28;20046;-70
2023/06/15 07:46:42;;;;;;;4.85;3.40;;;20.40;99.90;;;;;;5065489;28;20042;-71
2023/06/15 07:49:08;;;;;;;7.22;3.42;;;;;;;;;;5073614;28;20464;-71
2023/06/15 07:51:37;;;;;;;6.47;3.47;;;20.40;99.90;;;;;;5061517;28;20046;-71
2023/06/15 07:54:03;;;;;;;4.35;3.35;;;20.60;99.90;;;;;;5005321;28;20121;-71
2023/06/15 07:56:28;;;;;;;3.55;3.20;;;20.70;99.90;;;;;;4994863;28;20133;-71
2023/06/15 07:58:54;;;;;;;5.53;3.65;;;20.80;99.90;;;;;;5062730;28;20039;-71
2023/06/15 08:01:20;;;;;;;4.82;3.40;;;20.90;99.90;;;;;;4985465;28;20447;-71
2023/06/15 08:03:46;;;;;;;4.65;3.50;;;21.00;99.90;;;;;;4995988;28;20447;-70
2023/06/15 08:06:11;;;;;;;4.57;3.78;;;21.00;99.90;;;;;;4974973;28;20553;-70
2023/06/15 08:08:37;;;;;;;5.30;3.70;;;21.00;99.90;;;;;;4987341;28;20121;-70
2023/06/15 08:11:05;;;;;;;6.28;3.78;;;21.10;99.90;;;;;;4984302;28;20042;-70
2023/06/15 08:13:31;;;;;;;4.00;3.50;;;21.10;99.90;;;;;;4987083;28;20427;-71
2023/06/15 08:15:57;;;;;;;3.75;3.15;;;21.10;99.90;;;;;;4988668;28;20485;-71
2023/06/15 08:18:23;;;;;;;5.88;4.22;;;21.10;99.90;;;;;;5053197;28;20047;-70
2023/06/15 08:20:49;;;;;;;5.35;3.53;;;21.10;99.90;;;;;;4985671;28;20062;-71
2023/06/15 08:23:15;;;;;;;6.75;3.97;;;21.10;99.90;;;;;;4992440;28;20081;-71
2023/06/15 08:25:41;;;;;;;5.88;3.70;;;;;;;;;;5058139;28;20043;-71
2023/06/15 08:28:08;;;;;;;6.55;3.42;;;;;;;;;;4981161;28;20042;-70
2023/06/15 08:30:33;;;;;;;5.82;4.10;;;21.20;99.90;;;;;;4982615;28;20086;-71
2023/06/15 08:32:59;;;;;;;6.05;3.70;;;21.30;99.90;;;;;;4985945;28;20492;-71
2023/06/15 08:35:25;;;;;;;6.63;4.25;;;21.40;99.90;;;;;;4989175;28;20058;-70
2023/06/15 08:37:50;;;;;;;7.55;3.80;;;21.50;99.90;;;;;;4978949;28;20058;-70
2023/06/15 08:40:16;;;;;;;6.10;3.67;;;21.50;99.90;;;;;;4982287;28;20136;-72
2023/06/15 08:42:42;;;;;;;4.70;3.60;;;;;;;;;;5045920;28;20049;-71
2023/06/15 08:45:08;;;;;;;3.90;3.50;;;21.40;99.90;;;;;;4985254;28;20427;-71
2023/06/15 08:47:35;;;;;;;5.22;3.90;;;21.60;99.90;;;;;;4986761;28;20121;-71
2023/06/15 08:50:06;;;;;;;6.22;4.00;;;21.60;99.90;;;;;;5072648;28;20073;-71
2023/06/15 08:52:34;;;;;;;6.13;3.50;;;21.70;99.90;;;;;;4984405;28;20039;-71
2023/06/15 08:55:01;;;;;;;6.07;3.70;;;21.70;99.90;;;;;;4985749;28;20046;-71
2023/06/15 08:57:27;;;;;;;7.05;4.05;;;21.70;99.90;;;;;;4985818;28;20046;-71
2023/06/15 08:59:53;;;;;;;4.22;3.45;;;21.70;99.90;;;;;;4981255;28;20164;-71
2023/06/15 09:02:21;;;;;;;6.68;3.45;;;21.70;99.50;;;;;;4979348;28;20057;-70
2023/06/15 09:04:52;;;;;;;4.43;3.60;;;21.70;99.70;;;;;;5006438;28;20130;-71
2023/06/15 09:07:18;;;;;;;5.57;3.80;;;21.70;98.90;;;;;;5000793;28;20490;-71
2023/06/15 09:10:09;;;;;;;7.32;3.47;;;21.70;99.40;;;;;;4990073;28;20046;-70
2023/06/15 09:12:44;;;;;;;4.60;3.30;;;21.70;99.50;;;;;;4983978;28;20096;-70
2023/06/15 09:15:12;;;;;;;5.03;3.10;;;21.80;99.90;;;;;;4987698;28;20046;-71
2023/06/15 09:17:40;;;;;;;4.75;2.78;;;21.80;99.60;;;;;;4997005;28;20038;-70
2023/06/15 09:20:07;;;;;;;6.07;3.47;;;21.80;97.90;;;;;;4984055;28;20042;-69
2023/06/15 09:22:40;;;;;;;4.63;3.50;;;21.90;98.10;;;;;;5055371;28;20053;-70
2023/06/15 09:25:16;;;;;;;4.05;3.10;;;21.90;97.90;;;;;;5037326;28;20054;-71
2023/06/15 09:27:52;;;;;;;4.88;3.25;;;21.90;98.10;;;;;;4980337;28;20486;-70
2023/06/15 09:30:18;;;;;;;4.60;3.47;;;22.00;99.40;;;;;;5045120;28;20054;-70
2023/06/15 09:32:43;;;;;;;5.00;3.67;;;22.00;99.40;;;;;;5046452;28;20129;-71
2023/06/15 09:35:09;;;;;;;4.90;3.13;;;22.10;98.40;;;;;;4983148;28;20054;-70
2023/06/15 09:37:37;;;;;;;5.63;3.42;;;22.10;99.90;;;;;;4985725;28;20465;-71
2023/06/15 09:40:07;;;;;;;5.95;3.63;;;22.10;98.70;;;;;;4987671;28;20038;-70
2023/06/15 09:42:35;;;;;;;6.07;3.70;;;22.20;99.90;;;;;;4983913;28;20047;-70
2023/06/15 09:45:03;;;;;;;5.50;3.30;;;22.10;99.30;;;;;;4984253;28;20121;-71
2023/06/15 09:47:30;;;;;;;4.07;3.35;;;22.10;99.60;;;;;;4985354;28;20050;-70
2023/06/15 09:49:57;;;;;;;7.55;3.83;;;22.00;99.90;;;;;;4985694;28;20038;-70
2023/06/15 09:52:23;;;;;;;6.47;4.07;;;22.10;98.30;;;;;;4986407;28;20053;-70
2023/06/15 09:54:51;;;;;;;5.50;3.20;;;22.10;98.40;;;;;;5035597;28;20050;-70
2023/06/15 09:57:19;;;;;;;3.90;3.15;;;22.10;98.20;;;;;;4983748;28;20054;-70
2023/06/15 09:59:45;;;;;;;4.30;3.20;;;22.10;97.70;;;;;;4981548;28;20583;-70
2023/06/15 10:02:12;;;;;;;3.72;3.30;;;22.10;98.30;;;;;;4985185;28;20057;-70
2023/06/15 10:04:42;;;;;;;4.53;3.80;;;22.20;97.60;;;;;;5048353;28;20051;-70
2023/06/15 10:07:12;;;;;;;3.60;3.30;;;22.10;98.70;;;;;;4980996;28;20034;-70
2023/06/15 10:09:44;;;;;;;5.82;3.05;;;22.10;98.60;;;;;;4978845;28;20117;-71
2023/06/15 10:12:16;;;;;;;5.73;3.50;;;22.10;98.60;;;;;;5043176;28;20058;-70
2023/06/15 10:14:51;;;;;;;3.67;3.25;;;22.20;99.40;;;;;;4977956;28;20038;-70
2023/06/15 10:17:23;;;;;;;4.85;3.22;;;22.30;99.00;;;;;;4986445;28;20125;-71
2023/06/15 10:19:52;;;;;;;4.82;2.95;;;22.40;97.60;;;;;;5057419;28;20489;-70
2023/06/15 10:22:21;;;;;;;3.25;2.95;;;22.40;95.40;;;;;;4982544;28;20479;-71
2023/06/15 10:24:47;;;;;;;4.10;3.03;;;22.40;95.20;;;;;;4988957;28;20539;-70
2023/06/15 10:27:14;;;;;;;4.97;2.95;;;22.50;93.80;;;;;;4987628;28;20043;-70
2023/06/15 10:29:46;;;;;;;4.47;3.42;;;22.50;94.10;;;;;;4989402;28;20121;-71
2023/06/15 10:32:23;;;;;;;3.58;3.20;;;22.50;94.20;;;;;;4988017;28;20050;-70
2023/06/15 10:35:04;;;;;;;5.05;3.30;;;22.60;94.80;;;;;;4989148;28;20054;-71
2023/06/15 10:37:48;;;;;;;3.72;3.08;;;22.70;95.70;;;;;;4981601;28;20614;-70
2023/06/15 10:40:20;;;;;;;4.68;3.20;;;22.90;96.80;;;;;;4984797;28;20046;-71
2023/06/15 10:42:49;;;;;;;4.63;2.70;;;23.00;95.10;;;;;;5057947;28;20052;-70
2023/06/15 10:45:24;;;;;;;3.92;3.00;;;23.00;94.30;;;;;;5052538;28;20078;-71
2023/06/15 10:47:50;;;;;;;6.25;3.33;;;23.10;94.80;;;;;;5068100;28;20101;-71
2023/06/15 10:50:16;;;;;;;5.22;3.30;;;23.10;92.90;;;;;;4984259;28;20043;-70
2023/06/15 10:52:42;;;;;;;6.25;3.05;;;23.20;94.20;;;;;;4986768;28;20039;-70
2023/06/15 10:55:09;;;;;;;5.85;3.28;;;23.20;94.20;;;;;;4988123;28;20054;-70
2023/06/15 10:57:36;;;;;;;3.58;3.10;;;23.20;92.60;;;;;;4987388;28;20084;-70
2023/06/15 11:00:04;;;;;;;3.80;3.40;;;23.20;91.70;;;;;;4992875;28;20077;-70
2023/06/15 11:02:31;;;;;;;5.25;3.22;;;23.30;92.10;;;;;;4986534;28;20054;-70
2023/06/15 11:05:09;;;;;;;5.35;3.10;;;23.30;92.00;;;;;;5000172;28;20053;-71
2023/06/15 11:07:48;;;;;;;5.43;3.13;;;23.40;91.90;;;;;;4989815;28;20050;-70
2023/06/15 11:10:17;;;;;;;3.75;3.20;;;23.60;90.70;;;;;;4987888;28;20131;-70
2023/06/15 11:12:44;;;;;;;3.17;2.70;;;23.60;90.70;;;;;;4987518;28;20074;-70
2023/06/15 11:15:13;;;;;;;4.72;3.00;;;23.50;91.20;;;;;;4983063;28;20043;-70
2023/06/15 11:18:00;;;;;;;3.97;3.15;;;23.60;90.30;;;;;;4985139;28;20058;-70
2023/06/15 11:20:54;;;;;;;4.57;3.13;;;23.60;90.20;;;;;;5054049;28;21081;-71
2023/06/15 11:23:23;;;;;;;4.05;3.20;;;23.60;88.90;;;;;;4990719;28;20094;-70
2023/06/15 11:25:55;;;;;;;5.32;3.20;;;23.60;91.30;;;;;;4984138;28;20493;-70
2023/06/15 11:28:24;;;;;;;3.85;3.22;;;23.70;91.30;;;;;;5056238;28;20058;-70
2023/06/15 11:30:51;;;;;;;5.45;3.03;;;23.70;92.70;;;;;;4988401;28;20053;-70
2023/06/15 11:33:37;;;;;;;5.25;3.30;;;23.70;94.00;;;;;;4988536;28;20046;-70
2023/06/15 11:36:05;;;;;;;4.90;3.30;;;23.70;93.10;;;;;;4988349;28;20347;-70
2023/06/15 11:38:31;;;;;;;3.92;3.20;;;23.70;93.50;;;;;;5049952;28;20497;-70
2023/06/15 11:41:01;;;;;;;4.10;3.10;;;23.70;91.80;;;;;;4988368;28;20038;-71
2023/06/15 11:43:32;;;;;;;3.88;3.47;;;23.80;93.00;;;;;;4985696;28;20125;-70
2023/06/15 11:45:58;;;;;;;4.15;3.13;;;23.80;92.50;;;;;;4980907;28;20433;-70
2023/06/15 11:48:25;;;;;;;4.20;3.40;;;23.80;90.90;;;;;;4987815;28;20035;-71
2023/06/15 11:50:51;;;;;;;4.32;3.22;;;23.80;90.30;;;;;;4982409;28;20135;-70
2023/06/15 11:53:16;;;;;;;4.15;3.13;;;23.90;91.50;;;;;;4982632;28;20436;-70
2023/06/15 11:55:44;;;;;;;3.58;3.13;;;23.90;93.20;;;;;;5056668;28;20038;-71
2023/06/15 11:58:09;;;;;;;3.95;3.20;;;24.20;92.90;;;;;;5087216;28;20417;-70
2023/06/15 12:00:35;;;;;;;3.45;3.15;;;24.20;94.00;;;;;;4982448;28;20031;-71
2023/06/15 12:03:07;;;;;;;4.45;3.40;;;24.20;94.90;;;;;;4988423;28;20490;-71
2023/06/15 12:05:32;;;;;;;6.60;3.65;;;24.30;95.70;;;;;;5055154;28;20082;-70
2023/06/15 12:07:59;;;;;;;5.43;3.50;;;24.30;96.20;;;;;;5054989;28;20073;-70
2023/06/15 12:10:25;;;;;;;4.93;3.60;;;24.30;96.80;;;;;;4987414;28;20054;-71
2023/06/15 12:12:51;;;;;;;4.43;3.65;;;24.30;97.50;;;;;;4988177;28;20050;-71
2023/06/15 12:15:17;;;;;;;3.83;3.47;;;24.30;97.30;;;;;;5088442;28;20133;-70
2023/06/15 12:17:43;;;;;;;3.90;3.50;;;24.40;97.30;;;;;;4989321;28;20034;-70
2023/06/15 12:20:13;;;;;;;4.30;3.60;;;24.30;97.60;;;;;;5085237;28;20558;-70
2023/06/15 12:22:44;;;;;;;4.55;3.83;;;24.30;98.50;;;;;;5066902;28;20034;-71
2023/06/15 12:25:11;;;;;;;5.28;3.83;;;24.40;98.90;;;;;;4984260;28;20087;-71
2023/06/15 12:27:41;;;;;;;4.82;3.85;;;24.40;99.40;;;;;;4987490;28;20057;-71
2023/06/15 12:30:17;;;;;;;4.10;3.50;;;24.40;98.70;;;;;;4984720;28;20049;-71
2023/06/15 12:32:45;;;;;;;5.13;3.70;;;24.40;98.90;;;;;;4981430;28;20050;-71
2023/06/15 12:35:37;;;;;;;4.72;3.63;;;24.40;98.70;;;;;;4987656;28;20057;-71
2023/06/15 12:38:06;;;;;;;4.50;3.80;;;24.40;98.70;;;;;;4983331;28;20410;-70
2023/06/15 12:40:33;;;;;;;5.05;3.40;;;24.40;98.20;;;;;;4985848;28;20680;-71
2023/06/15 12:43:05;;;;;;;5.70;3.80;;;24.50;99.30;;;;;;5054506;28;20539;-71
2023/06/15 12:45:32;;;;;;;3.72;3.42;;;24.60;98.40;;;;;;4986291;28;20410;-71
2023/06/15 12:47:59;;;;;;;3.90;3.50;;;24.60;97.60;;;;;;5087450;28;20042;-70